Time;durP1;ratioP1;P1;durP2;ratioP2;P2;SDS_P1;SDS_P2;PMS_P1;PMS_P2;Temp;Humidity;BMP_temperature;BMP_pressure;BME280_temperature;BME280_humidity;BME280_pressure;Samples;Min_cycle;Max_cycle;Signal;HPM_P1;HPM_P2
2021/04/20 00:00:17;;;;;;;;;;;;;;;;;;5005144;28;1910;-57
2021/04/20 00:02:42;;;;;;;;;;;;;;;;;;5004410;28;1226;-59
2021/04/20 00:05:11;;;;;;;;;;;;;;;;;;5004729;28;1076;-59
2021/04/20 00:07:36;;;;;;;;;;;;;;;;;;5005207;28;1198;-59
2021/04/20 00:10:05;;;;;;;;;;;;;;;;;;5004709;28;1150;-60
2021/04/20 00:12:31;;;;;;;;;;;;;;;;;;5004480;28;1176;-59
2021/04/20 00:14:56;;;;;;;;;;;;;;;;;;5004439;28;1226;-61
2021/04/20 00:17:21;;;;;;;;;;;;;;;;;;5005063;28;1233;-60
2021/04/20 00:19:47;;;;;;;;;;;;;;;;;;5003058;28;2009;-61
2021/04/20 00:22:12;;;;;;;;;;;;;;;;;;5004770;28;1137;-60
2021/04/20 00:24:38;;;;;;;;;;;;;;;;;;5005840;28;1258;-61
2021/04/20 00:27:03;;;;;;;;;;;;;;;;;;5004673;28;1080;-60
2021/04/20 00:29:28;;;;;;;;;;;;;;;;;;5003204;28;1179;-61
2021/04/20 00:31:54;;;;;;;;;;;;;;;;;;5004548;28;1146;-59
2021/04/20 00:34:19;;;;;;;;;;;;;;;;;;5004926;28;1226;-61
2021/04/20 00:36:45;;;;;;;;;;;;;;;;;;5004097;28;1210;-59
2021/04/20 00:39:10;;;;;;;;;;;;;;;;;;5004676;28;1088;-59
2021/04/20 00:41:35;;;;;;;;;;;;;;;;;;5002553;28;1898;-60
2021/04/20 00:44:01;;;;;;;;;;;;;;;;;;5004215;28;1163;-59
2021/04/20 00:46:26;;;;;;;;;;;;;;;;;;5004033;28;1154;-59
2021/04/20 00:48:51;;;;;;;;;;;;;;;;;;5005029;28;1226;-60
2021/04/20 00:51:18;;;;;;;;;;;;;;;;;;5004226;28;1119;-61
2021/04/20 00:53:43;;;;;;;;;;;;;;;;;;5005836;28;1166;-61
2021/04/20 00:56:09;;;;;;;;;;;;;;;;;;5004000;28;1059;-61
2021/04/20 00:58:34;;;;;;;;;;;;;;;;;;5004199;28;1143;-62
2021/04/20 01:01:00;;;;;;;;;;;;;;;;;;5012707;28;1973;-61
2021/04/20 01:03:26;;;;;;;;;;;;;;;;;;5003833;28;1166;-60
2021/04/20 01:05:51;;;;;;;;;;;;;;;;;;5004329;28;1158;-61
2021/04/20 01:08:18;;;;;;;;;;;;;;;;;;5003234;28;1056;-62
2021/04/20 01:10:45;;;;;;;;;;;;;;;;;;5003672;28;1234;-61
2021/04/20 01:13:11;;;;;;;;;;;;;;;;;;5003344;28;1027;-63
2021/04/20 01:15:37;;;;;;;;;;;;;;;;;;5003558;28;1262;-61
2021/04/20 01:18:13;;;;;;;;;;;;;;;;;;5003822;28;1241;-63
2021/04/20 01:20:42;;;;;;;;;;;;;;;;;;5001015;28;1890;-60
2021/04/20 01:23:09;;;;;;;;;;;;;;;;;;5003136;28;1071;-59
2021/04/20 01:25:35;;;;;;;;;;;;;;;;;;5005790;28;1147;-57
2021/04/20 01:28:00;;;;;;;;;;;;;;;;;;5003886;28;1091;-58
2021/04/20 01:30:26;;;;;;;;;;;;;;;;;;5001891;28;1262;-57
2021/04/20 01:32:51;;;;;;;;;;;;;;;;;;5003893;28;1151;-58
2021/04/20 01:35:16;;;;;;;;;;;;;;;;;;5003201;28;1114;-58
2021/04/20 01:37:42;;;;;;;;;;;;;;;;;;5003078;28;1233;-57
2021/04/20 01:40:07;;;;;;;;;;;;;;;;;;5002847;28;1898;-57
2021/04/20 01:42:34;;;;;;;;;;;;;;;;;;5003125;28;1159;-57
2021/04/20 01:45:00;;;;;;;;;;;;;;;;;;5000832;28;1123;-57
2021/04/20 01:47:26;;;;;;;;;;;;;;;;;;5003429;28;1170;-57
2021/04/20 01:49:51;;;;;;;;;;;;;;;;;;5003951;28;1178;-57
2021/04/20 01:52:17;;;;;;;;;;;;;;;;;;5002934;28;1206;-59
2021/04/20 01:54:42;;;;;;;;;;;;;;;;;;5005031;28;1054;-57
2021/04/20 01:57:09;;;;;;;;;;;;;;;;;;5003501;28;1218;-57
2021/04/20 01:59:35;;;;;;;;;;;;;;;;;;5003011;28;1159;-57
2021/04/20 02:02:00;;;;;;;;;;;;;;;;;;5002965;28;1914;-58
2021/04/20 02:04:26;;;;;;;;;;;;;;;;;;5003522;28;1237;-57
2021/04/20 02:06:51;;;;;;;;;;;;;;;;;;5002506;28;1203;-57
2021/04/20 02:09:17;;;;;;;;;;;;;;;;;;5001416;28;1226;-57
2021/04/20 02:11:42;;;;;;;;;;;;;;;;;;5003014;28;1242;-57
2021/04/20 02:14:07;;;;;;;;;;;;;;;;;;5003243;28;1214;-58
2021/04/20 02:16:33;;;;;;;;;;;;;;;;;;5002813;28;1225;-57
2021/04/20 02:19:01;;;;;;;;;;;;;;;;;;5002772;28;1396;-57
2021/04/20 02:21:26;;;;;;;;;;;;;;;;;;5002510;28;1898;-57
2021/04/20 02:23:52;;;;;;;;;;;;;;;;;;5003527;28;1064;-57
2021/04/20 02:26:23;;;;;;;;;;;;;;;;;;5006914;28;1331;-57
2021/04/20 02:28:49;;;;;;;;;;;;;;;;;;5003867;28;1233;-58
2021/04/20 02:31:14;;;;;;;;;;;;;;;;;;5002493;28;1251;-57
2021/04/20 02:33:41;;;;;;;;;;;;;;;;;;5003323;28;1174;-56
2021/04/20 02:36:06;;;;;;;;;;;;;;;;;;4998363;28;1545;-57
2021/04/20 02:38:33;;;;;;;;;;;;;;;;;;5000369;28;1867;-57
2021/04/20 02:40:59;;;;;;;;;;;;;;;;;;5001114;28;1906;-56
2021/04/20 02:43:25;;;;;;;;;;;;;;;;;;5002372;28;1155;-57
2021/04/20 02:45:54;;;;;;;;;;;;;;;;;;5003567;28;1186;-60
2021/04/20 02:48:19;;;;;;;;;;;;;;;;;;5001412;28;1074;-60
2021/04/20 02:50:45;;;;;;;;;;;;;;;;;;5002575;28;1234;-62
2021/04/20 02:53:14;;;;;;;;;;;;;;;;;;5003898;28;1186;-60
2021/04/20 02:55:40;;;;;;;;;;;;;;;;;;4999191;28;1098;-60
2021/04/20 02:58:10;;;;;;;;;;;;;;;;;;5002626;28;1166;-60
2021/04/20 03:00:39;;;;;;;;;;;;;;;;;;5002229;28;1902;-60
2021/04/20 03:03:05;;;;;;;;;;;;;;;;;;5002467;28;1242;-59
2021/04/20 03:05:31;;;;;;;;;;;;;;;;;;5004414;28;1160;-60
2021/04/20 03:07:56;;;;;;;;;;;;;;;;;;5004671;28;1301;-60
2021/04/20 03:10:23;;;;;;;;;;;;;;;;;;5011951;28;1206;-60
2021/04/20 03:12:50;;;;;;;;;;;;;;;;;;5006118;28;1147;-59
2021/04/20 03:15:16;;;;;;;;;;;;;;;;;;5004381;28;1225;-60
2021/04/20 03:17:46;;;;;;;;;;;;;;;;;;5005450;28;1095;-60
2021/04/20 03:20:12;;;;;;;;;;;;;;;;;;5004965;28;1902;-61
2021/04/20 03:22:42;;;;;;;;;;;;;;;;;;5006226;28;1178;-60
2021/04/20 03:25:13;;;;;;;;;;;;;;;;;;5005958;28;1143;-60
2021/04/20 03:27:42;;;;;;;;;;;;;;;;;;5006708;28;1121;-59
2021/04/20 03:30:08;;;;;;;;;;;;;;;;;;5005400;28;1077;-58
2021/04/20 03:32:36;;;;;;;;;;;;;;;;;;5005872;28;1151;-58
2021/04/20 03:35:15;;;;;;;;;;;;;;;;;;5002399;28;1258;-59
2021/04/20 03:37:51;;;;;;;;;;;;;;;;;;5005491;28;1305;-60
2021/04/20 03:40:18;;;;;;;;;;;;;;;;;;5004961;28;1902;-58
2021/04/20 03:42:46;;;;;;;;;;;;;;;;;;5005078;28;1072;-58
2021/04/20 03:45:17;;;;;;;;;;;;;;;;;;5004738;28;1137;-59
2021/04/20 03:47:46;;;;;;;;;;;;;;;;;;5002440;28;1151;-61
2021/04/20 03:50:12;;;;;;;;;;;;;;;;;;5004878;28;1178;-59
2021/04/20 03:52:48;;;;;;;;;;;;;;;;;;5007316;28;1202;-60
2021/04/20 03:55:16;;;;;;;;;;;;;;;;;;5004483;28;1139;-60
2021/04/20 03:57:43;;;;;;;;;;;;;;;;;;5001863;28;1206;-58
2021/04/20 04:00:09;;;;;;;;;;;;;;;;;;5005003;28;1957;-61
2021/04/20 04:02:36;;;;;;;;;;;;;;;;;;5004978;28;1139;-60
2021/04/20 04:05:03;;;;;;;;;;;;;;;;;;5001423;28;1132;-61
2021/04/20 04:07:29;;;;;;;;;;;;;;;;;;5004927;28;1214;-62
2021/04/20 04:09:55;;;;;;;;;;;;;;;;;;5004080;28;1147;-62
2021/04/20 04:12:22;;;;;;;;;;;;;;;;;;5005246;28;1059;-58
2021/04/20 04:14:48;;;;;;;;;;;;;;;;;;5004353;28;1083;-58
2021/04/20 04:17:14;;;;;;;;;;;;;;;;;;5004439;28;1215;-58
2021/04/20 04:19:47;;;;;;;;;;;;;;;;;;5003883;28;1218;-58
2021/04/20 04:22:15;;;;;;;;;;;;;;;;;;5004074;28;1886;-58
2021/04/20 04:24:51;;;;;;;;;;;;;;;;;;5004126;28;1285;-57
2021/04/20 04:27:20;;;;;;;;;;;;;;;;;;5005262;28;1194;-58
2021/04/20 04:29:47;;;;;;;;;;;;;;;;;;5004791;28;1234;-57
2021/04/20 04:32:13;;;;;;;;;;;;;;;;;;5003874;28;1139;-57
2021/04/20 04:34:39;;;;;;;;;;;;;;;;;;5001644;28;1167;-58
2021/04/20 04:37:05;;;;;;;;;;;;;;;;;;5003759;28;1040;-58
2021/04/20 04:39:30;;;;;;;;;;;;;;;;;;5004470;28;1068;-58
2021/04/20 04:41:56;;;;;;;;;;;;;;;;;;5003826;28;1981;-58
2021/04/20 04:44:22;;;;;;;;;;;;;;;;;;5002036;28;1067;-58
2021/04/20 04:46:47;;;;;;;;;;;;;;;;;;5003702;28;1217;-58
2021/04/20 04:49:13;;;;;;;;;;;;;;;;;;5003604;28;1159;-58
2021/04/20 04:51:39;;;;;;;;;;;;;;;;;;5003686;28;1066;-57
2021/04/20 04:54:16;;;;;;;;;;;;;;;;;;5005940;28;1040;-58
2021/04/20 04:56:42;;;;;;;;;;;;;;;;;;5002923;28;1028;-57
2021/04/20 04:59:08;;;;;;;;;;;;;;;;;;5002231;28;1175;-59
2021/04/20 05:01:37;;;;;;;;;;;;;;;;;;5003034;28;1890;-58
2021/04/20 05:04:06;;;;;;;;;;;;;;;;;;5001053;28;1239;-59
2021/04/20 05:06:33;;;;;;;;;;;;;;;;;;5013907;28;1147;-61
2021/04/20 05:08:58;;;;;;;;;;;;;;;;;;5002645;28;1084;-58
2021/04/20 05:11:24;;;;;;;;;;;;;;;;;;5003246;28;1167;-59
2021/04/20 05:13:50;;;;;;;;;;;;;;;;;;5003819;28;1170;-58
2021/04/20 05:16:15;;;;;;;;;;;;;;;;;;5003058;28;1155;-60
2021/04/20 05:18:41;;;;;;;;;;;;;;;;;;5003291;28;1166;-58
2021/04/20 05:21:06;;;;;;;;;;;;;;;;;;5002976;28;1890;-60
2021/04/20 05:23:32;;;;;;;;;;;;;;;;;;5003455;28;1225;-60
2021/04/20 05:25:57;;;;;;;;;;;;;;;;;;5002659;28;1060;-59
2021/04/20 05:28:23;;;;;;;;;;;;;;;;;;5001489;28;1188;-59
2021/04/20 05:30:48;;;;;;;;;;;;;;;;;;5003053;28;1560;-60
2021/04/20 05:33:14;;;;;;;;;;;;;;;;;;5003367;28;1186;-57
2021/04/20 05:35:40;;;;;;;;;;;;;;;;;;5003238;28;1280;-57
2021/04/20 05:38:06;;;;;;;;;;;;;;;;;;5003632;28;1155;-59
2021/04/20 05:40:36;;;;;;;;;;;;;;;;;;5003263;28;2339;-58
2021/04/20 05:43:02;;;;;;;;;;;;;;;;;;5002919;28;1301;-58
2021/04/20 05:45:27;;;;;;;;;;;;;;;;;;5002271;28;1270;-58
2021/04/20 05:47:53;;;;;;;;;;;;;;;;;;5003724;28;1230;-61
2021/04/20 05:50:19;;;;;;;;;;;;;;;;;;5011819;28;1296;-57
2021/04/20 05:52:45;;;;;;;;;;;;;;;;;;5013403;28;1151;-58
2021/04/20 05:55:11;;;;;;;;;;;;;;;;;;5012345;28;1119;-58
2021/04/20 05:57:36;;;;;;;;;;;;;;;;;;5009906;28;1092;-58
2021/04/20 06:00:03;;;;;;;;;;;;;;;;;;5010499;28;1969;-59
2021/04/20 06:02:33;;;;;;;;;;;;;;;;;;5008853;28;1139;-58
2021/04/20 06:05:05;;;;;;;;;;;;;;;;;;5001776;28;1199;-58
2021/04/20 06:07:33;;;;;;;;;;;;;;;;;;5002967;28;1273;-58
2021/04/20 06:09:58;;;;;;;;;;;;;;;;;;5003078;28;1222;-59
2021/04/20 06:12:24;;;;;;;;;;;;;;;;;;5003204;28;1147;-60
2021/04/20 06:14:51;;;;;;;;;;;;;;;;;;5003489;28;1171;-58
2021/04/20 06:17:16;;;;;;;;;;;;;;;;;;5002363;28;1206;-61
2021/04/20 06:19:42;;;;;;;;;;;;;;;;;;5003058;28;1329;-59
2021/04/20 06:22:10;;;;;;;;;;;;;;;;;;5003311;28;1890;-61
2021/04/20 06:24:35;;;;;;;;;;;;;;;;;;5003331;28;1163;-59
2021/04/20 06:27:01;;;;;;;;;;;;;;;;;;5003281;28;1158;-59
2021/04/20 06:29:27;;;;;;;;;;;;;;;;;;5002646;28;1199;-61
2021/04/20 06:31:53;;;;;;;;;;;;;;;;;;5003381;28;1157;-59
2021/04/20 06:34:19;;;;;;;;;;;;;;;;;;5002977;28;1107;-59
2021/04/20 06:36:44;;;;;;;;;;;;;;;;;;5001176;28;1738;-60
2021/04/20 06:39:10;;;;;;;;;;;;;;;;;;5003741;28;1461;-61
2021/04/20 06:41:36;;;;;;;;;;;;;;;;;;5006196;28;1897;-59
2021/04/20 06:44:20;;;;;;;;;;;;;;;;;;5004099;28;1551;-62
2021/04/20 06:47:04;;;;;;;;;;;;;;;;;;5003784;28;1167;-62
2021/04/20 06:49:32;;;;;;;;;;;;;;;;;;5003896;28;1132;-62
2021/04/20 06:52:02;;;;;;;;;;;;;;;;;;5005559;28;1587;-61
2021/04/20 06:54:48;;;;;;;;;;;;;;;;;;5023911;28;1105;-60
2021/04/20 06:57:14;;;;;;;;;;;;;;;;;;5032331;28;1197;-60
2021/04/20 06:59:40;;;;;;;;;;;;;;;;;;5012004;28;1632;-61
2021/04/20 07:02:09;;;;;;;;;;;;;;;;;;5000236;28;1972;-61
2021/04/20 07:04:34;;;;;;;;;;;;;;;;;;5059790;28;993;-60
2021/04/20 07:07:10;;;;;;;;;;;;;;;;;;5109170;28;910;-58
2021/04/20 07:09:40;;;;;;;;;;;;;;;;;;5067460;28;1799;-58
2021/04/20 07:12:05;;;;;;;;;;;;;;;;;;5006025;28;803;-58
2021/04/20 07:14:35;;;;;;;;;;;;;;;;;;5006093;28;1174;-58
2021/04/20 07:17:24;;;;;;;;;;;;;;;;;;5005560;28;838;-59
2021/04/20 07:20:08;;;;;;;;;;;;;;;;;;5032508;28;1231;-60
2021/04/20 07:22:55;;;;;;;;;;;;;;;;;;5005320;28;1187;-59
2021/04/20 07:25:24;;;;;;;;;;;;;;;;;;4991361;28;1171;-58
2021/04/20 07:27:59;;;;;;;;;;;;;;;;;;5006012;28;1155;-60
2021/04/20 07:30:33;;;;;;;;;;;;;;;;;;5005984;28;1028;-59
2021/04/20 07:33:11;;;;;;;;;;;;;;;;;;5005408;28;1229;-59
2021/04/20 07:35:36;;;;;;;;;;;;;;;;;;5003543;28;1199;-59
2021/04/20 07:38:05;;;;;;;;;;;;;;;;;;5005485;28;925;-59
2021/04/20 07:40:32;;;;;;;;;;;;;;;;;;5004550;28;1997;-59
2021/04/20 07:43:04;;;;;;;;;;;;;;;;;;5004039;28;1469;-59
2021/04/20 07:45:39;;;;;;;;;;;;;;;;;;5004298;28;1222;-59
2021/04/20 07:48:20;;;;;;;;;;;;;;;;;;5004523;28;1211;-59
2021/04/20 07:50:48;;;;;;;;;;;;;;;;;;5001661;28;1316;-60
2021/04/20 07:53:32;;;;;;;;;;;;;;;;;;5005801;28;1346;-59
2021/04/20 07:56:07;;;;;;;;;;;;;;;;;;5002206;28;1304;-59
2021/04/20 07:58:34;;;;;;;;;;;;;;;;;;5003004;28;1320;-58
2021/04/20 08:01:12;;;;;;;;;;;;;;;;;;5008024;28;1883;-61
2021/04/20 08:03:50;;;;;;;;;;;;;;;;;;5008137;28;1210;-60
2021/04/20 08:06:19;;;;;;;;;;;;;;;;;;5033815;27;1166;-59
2021/04/20 08:08:47;;;;;;;;;;;;;;;;;;5004185;28;1314;-58
2021/04/20 08:11:24;;;;;;;;;;;;;;;;;;5004395;28;1268;-60
2021/04/20 08:14:05;;;;;;;;;;;;;;;;;;5002020;28;1295;-60
2021/04/20 08:16:33;;;;;;;;;;;;;;;;;;5001406;28;1229;-58
2021/04/20 08:19:06;;;;;;;;;;;;;;;;;;5003758;28;1228;-59
2021/04/20 08:21:35;;;;;;;;;;;;;;;;;;5001383;28;1953;-60
2021/04/20 08:24:02;;;;;;;;;;;;;;;;;;5002937;28;1250;-59
2021/04/20 08:26:32;;;;;;;;;;;;;;;;;;5004040;28;1344;-58
2021/04/20 08:28:58;;;;;;;;;;;;;;;;;;5004721;28;1179;-59
2021/04/20 08:31:23;;;;;;;;;;;;;;;;;;5004451;28;1125;-59
2021/04/20 08:33:53;;;;;;;;;;;;;;;;;;5002339;28;1146;-58
2021/04/20 08:36:32;;;;;;;;;;;;;;;;;;5007449;28;1248;-58
2021/04/20 08:39:15;;;;;;;;;;;;;;;;;;5011051;28;1274;-60
2021/04/20 08:41:46;;;;;;;;;;;;;;;;;;5004486;28;1898;-58
2021/04/20 08:44:14;;;;;;;;;;;;;;;;;;5000988;28;1381;-58
2021/04/20 08:46:58;;;;;;;;;;;;;;;;;;5001100;28;1196;-60
2021/04/20 08:49:31;;;;;;;;;;;;;;;;;;5002068;28;2381;-60
2021/04/20 08:52:01;;;;;;;;;;;;;;;;;;5000585;28;1454;-59
2021/04/20 08:54:45;;;;;;;;;;;;;;;;;;5002398;28;1252;-58
2021/04/20 08:57:26;;;;;;;;;;;;;;;;;;5002437;28;1149;-60
2021/04/20 08:59:53;;;;;;;;;;;;;;;;;;5008926;28;1315;-60
2021/04/20 09:02:26;;;;;;;;;;;;;;;;;;5001831;28;1954;-59
2021/04/20 09:04:53;;;;;;;;;;;;;;;;;;5001698;28;1105;-58
2021/04/20 09:07:27;;;;;;;;;;;;;;;;;;5003540;28;1315;-58
2021/04/20 09:09:53;;;;;;;;;;;;;;;;;;5002433;28;1229;-59
2021/04/20 09:12:21;;;;;;;;;;;;;;;;;;5004166;28;2316;-59
2021/04/20 09:14:49;;;;;;;;;;;;;;;;;;4998187;28;1275;-59
2021/04/20 09:17:18;;;;;;;;;;;;;;;;;;5002919;28;1198;-58
2021/04/20 09:19:54;;;;;;;;;;;;;;;;;;5001463;28;1387;-59
2021/04/20 09:22:19;;;;;;;;;;;;;;;;;;5003946;28;1894;-60
2021/04/20 09:24:47;;;;;;;;;;;;;;;;;;5001270;28;1645;-60
2021/04/20 09:27:13;;;;;;;;;;;;;;;;;;5001515;28;1095;-61
2021/04/20 09:29:59;;;;;;;;;;;;;;;;;;5002519;28;1255;-59
2021/04/20 09:32:34;;;;;;;;;;;;;;;;;;5001011;28;1091;-59
2021/04/20 09:35:01;;;;;;;;;;;;;;;;;;5003340;28;1185;-61
2021/04/20 09:37:29;;;;;;;;;;;;;;;;;;5002697;28;1117;-62
2021/04/20 09:39:55;;;;;;;;;;;;;;;;;;5002496;28;1245;-63
2021/04/20 09:42:21;;;;;;;;;;;;;;;;;;5003991;28;1963;-62
2021/04/20 09:44:49;;;;;;;;;;;;;;;;;;5002410;28;1447;-59
2021/04/20 09:47:33;;;;;;;;;;;;;;;;;;5004103;28;819;-62
2021/04/20 09:50:05;;;;;;;;;;;;;;;;;;4998937;28;2034;-62
2021/04/20 09:52:50;;;;;;;;;;;;;;;;;;5000806;28;1570;-61
2021/04/20 09:55:18;;;;;;;;;;;;;;;;;;4998380;28;1565;-60
2021/04/20 09:57:46;;;;;;;;;;;;;;;;;;5000628;28;1189;-59
2021/04/20 10:00:13;;;;;;;;;;;;;;;;;;5002158;28;1961;-58
2021/04/20 10:02:47;;;;;;;;;;;;;;;;;;5002047;28;1214;-59
2021/04/20 10:05:35;;;;;;;;;;;;;;;;;;5003075;28;1265;-58
2021/04/20 10:08:20;;;;;;;;;;;;;;;;;;5001277;28;1718;-59
2021/04/20 10:10:48;;;;;;;;;;;;;;;;;;5002781;28;1535;-58
2021/04/20 10:13:32;;;;;;;;;;;;;;;;;;5004136;28;799;-59
2021/04/20 10:16:12;;;;;;;;;;;;;;;;;;5006556;28;1675;-58
2021/04/20 10:18:41;;;;;;;;;;;;;;;;;;5006176;28;890;-58
2021/04/20 10:21:13;;;;;;;;;;;;;;;;;;5006271;28;1964;-58
2021/04/20 10:23:59;;;;;;;;;;;;;;;;;;5006606;28;1523;-58
2021/04/20 10:26:33;;;;;;;;;;;;;;;;;;5006387;28;798;-59
2021/04/20 10:29:10;;;;;;;;;;;;;;;;;;5005901;28;830;-58
2021/04/20 10:31:42;;;;;;;;;;;;;;;;;;5006069;28;867;-59
2021/04/20 10:34:08;;;;;;;;;;;;;;;;;;5006497;28;795;-58
2021/04/20 10:36:34;;;;;;;;;;;;;;;;;;5006438;28;843;-58
2021/04/20 10:39:06;;;;;;;;;;;;;;;;;;5006255;28;945;-58
2021/04/20 10:41:33;;;;;;;;;;;;;;;;;;5006422;28;1902;-58
2021/04/20 10:43:59;;;;;;;;;;;;;;;;;;5005793;28;842;-58
2021/04/20 10:46:26;;;;;;;;;;;;;;;;;;5006240;28;834;-58
2021/04/20 10:48:54;;;;;;;;;;;;;;;;;;5007800;28;878;-58
2021/04/20 10:51:28;;;;;;;;;;;;;;;;;;5006952;28;846;-58
2021/04/20 10:53:54;;;;;;;;;;;;;;;;;;5018889;28;1090;-60
2021/04/20 10:56:21;;;;;;;;;;;;;;;;;;5026228;28;1565;-58
2021/04/20 10:58:49;;;;;;;;;;;;;;;;;;5002261;28;1174;-59
2021/04/20 11:01:19;;;;;;;;;;;;;;;;;;5004127;28;1918;-58
2021/04/20 11:03:49;;;;;;;;;;;;;;;;;;5002038;28;1293;-59
2021/04/20 11:06:33;;;;;;;;;;;;;;;;;;5003837;28;1279;-59
2021/04/20 11:08:59;;;;;;;;;;;;;;;;;;5002403;28;1220;-61
2021/04/20 11:11:25;;;;;;;;;;;;;;;;;;5004941;28;1490;-59
2021/04/20 11:13:50;;;;;;;;;;;;;;;;;;5037002;27;1162;-64
2021/04/20 11:16:19;;;;;;;;;;;;;;;;;;5004254;28;1678;-59
2021/04/20 11:18:48;;;;;;;;;;;;;;;;;;5005724;28;1244;-58
2021/04/20 11:21:25;;;;;;;;;;;;;;;;;;5001798;28;1890;-58
2021/04/20 11:23:53;;;;;;;;;;;;;;;;;;5005563;28;1184;-59
2021/04/20 11:26:23;;;;;;;;;;;;;;;;;;5004271;28;1319;-60
2021/04/20 11:28:52;;;;;;;;;;;;;;;;;;5015451;28;1353;-58
2021/04/20 11:31:24;;;;;;;;;;;;;;;;;;5010331;28;1225;-58
2021/04/20 11:33:55;;;;;;;;;;;;;;;;;;5021390;27;1325;-59
2021/04/20 11:36:23;;;;;;;;;;;;;;;;;;5005423;28;1309;-61
2021/04/20 11:38:51;;;;;;;;;;;;;;;;;;5005133;28;1238;-58
2021/04/20 11:41:17;;;;;;;;;;;;;;;;;;5009269;28;1925;-57
2021/04/20 11:43:44;;;;;;;;;;;;;;;;;;5011532;28;1366;-60
2021/04/20 11:46:16;;;;;;;;;;;;;;;;;;5009874;28;1271;-60
2021/04/20 11:48:45;;;;;;;;;;;;;;;;;;5005530;28;1576;-61
2021/04/20 11:51:19;;;;;;;;;;;;;;;;;;5001107;28;1294;-59
2021/04/20 11:53:47;;;;;;;;;;;;;;;;;;5002743;28;1474;-58
2021/04/20 11:56:13;;;;;;;;;;;;;;;;;;5003557;28;1210;-62
2021/04/20 11:58:40;;;;;;;;;;;;;;;;;;5004930;28;1321;-59
2021/04/20 12:01:16;;;;;;;;;;;;;;;;;;5004649;28;1959;-62
2021/04/20 12:03:44;;;;;;;;;;;;;;;;;;5007286;28;1445;-58
2021/04/20 12:06:10;;;;;;;;;;;;;;;;;;5010879;28;1450;-59
2021/04/20 12:08:40;;;;;;;;;;;;;;;;;;5005746;28;1389;-58
2021/04/20 12:11:06;;;;;;;;;;;;;;;;;;5034583;28;1159;-61
2021/04/20 12:13:33;;;;;;;;;;;;;;;;;;5037945;28;1054;-58
2021/04/20 12:16:06;;;;;;;;;;;;;;;;;;5003782;28;1628;-60
2021/04/20 12:18:32;;;;;;;;;;;;;;;;;;5003820;28;885;-61
2021/04/20 12:21:00;;;;;;;;;;;;;;;;;;5002936;28;1890;-62
2021/04/20 12:23:27;;;;;;;;;;;;;;;;;;5004491;28;1158;-61
2021/04/20 12:25:54;;;;;;;;;;;;;;;;;;5005316;28;1303;-59
2021/04/20 12:28:20;;;;;;;;;;;;;;;;;;5003159;28;1336;-61
2021/04/20 12:30:46;;;;;;;;;;;;;;;;;;5002693;28;1172;-61
2021/04/20 12:33:19;;;;;;;;;;;;;;;;;;5003355;28;1377;-61
2021/04/20 12:35:45;;;;;;;;;;;;;;;;;;5003690;28;1136;-62
2021/04/20 12:38:11;;;;;;;;;;;;;;;;;;5005099;28;1230;-62
2021/04/20 12:40:36;;;;;;;;;;;;;;;;;;5007914;28;1989;-61
2021/04/20 12:43:03;;;;;;;;;;;;;;;;;;5004248;28;823;-61
2021/04/20 12:45:32;;;;;;;;;;;;;;;;;;5003876;28;878;-59
2021/04/20 12:47:58;;;;;;;;;;;;;;;;;;5004830;28;870;-59
2021/04/20 12:50:29;;;;;;;;;;;;;;;;;;5004882;28;946;-59
2021/04/20 12:52:58;;;;;;;;;;;;;;;;;;5007289;28;1082;-58
2021/04/20 12:55:24;;;;;;;;;;;;;;;;;;5023434;28;830;-62
2021/04/20 12:57:52;;;;;;;;;;;;;;;;;;5024275;28;872;-58
2021/04/20 13:00:17;;;;;;;;;;;;;;;;;;5027502;28;1898;-58
2021/04/20 13:02:47;;;;;;;;;;;;;;;;;;5004709;28;835;-58
2021/04/20 13:05:13;;;;;;;;;;;;;;;;;;5004525;28;830;-58
2021/04/20 13:07:40;;;;;;;;;;;;;;;;;;5004971;28;819;-58
2021/04/20 13:10:06;;;;;;;;;;;;;;;;;;5004425;28;850;-58
2021/04/20 13:12:34;;;;;;;;;;;;;;;;;;5003044;28;805;-58
2021/04/20 13:15:01;;;;;;;;;;;;;;;;;;5004715;28;869;-58
2021/04/20 13:17:27;;;;;;;;;;;;;;;;;;5004575;28;855;-58
2021/04/20 13:19:55;;;;;;;;;;;;;;;;;;5003711;28;1246;-58
2021/04/20 13:22:24;;;;;;;;;;;;;;;;;;5004640;28;1964;-59
2021/04/20 13:24:55;;;;;;;;;;;;;;;;;;5005447;28;839;-61
2021/04/20 13:27:21;;;;;;;;;;;;;;;;;;5004914;28;827;-59
2021/04/20 13:29:46;;;;;;;;;;;;;;;;;;5004070;28;890;-58
2021/04/20 13:32:12;;;;;;;;;;;;;;;;;;5004209;28;838;-58
2021/04/20 13:34:40;;;;;;;;;;;;;;;;;;5004429;28;882;-58
2021/04/20 13:37:23;;;;;;;;;;;;;;;;;;5004373;28;831;-58
2021/04/20 13:39:50;;;;;;;;;;;;;;;;;;5004798;28;878;-58
2021/04/20 13:42:17;;;;;;;;;;;;;;;;;;5004009;28;1902;-59
2021/04/20 13:45:03;;;;;;;;;;;;;;;;;;5003816;28;859;-59
2021/04/20 13:47:29;;;;;;;;;;;;;;;;;;5003173;28;811;-59
2021/04/20 13:49:55;;;;;;;;;;;;;;;;;;5002497;28;1246;-59
2021/04/20 13:52:29;;;;;;;;;;;;;;;;;;5004636;28;1098;-60
2021/04/20 13:54:59;;;;;;;;;;;;;;;;;;5023362;28;817;-58
2021/04/20 13:57:32;;;;;;;;;;;;;;;;;;5022344;28;1467;-58
2021/04/20 14:00:11;;;;;;;;;;;;;;;;;;5023228;28;798;-58
2021/04/20 14:02:39;;;;;;;;;;;;;;;;;;5023243;28;1910;-58
2021/04/20 14:05:06;;;;;;;;;;;;;;;;;;5023753;28;822;-59
2021/04/20 14:07:36;;;;;;;;;;;;;;;;;;5023193;28;874;-59
2021/04/20 14:10:03;;;;;;;;;;;;;;;;;;5023252;28;830;-58
2021/04/20 14:12:31;;;;;;;;;;;;;;;;;;5023406;28;945;-58
2021/04/20 14:15:05;;;;;;;;;;;;;;;;;;5023281;28;874;-58
2021/04/20 14:17:33;;;;;;;;;;;;;;;;;;5023271;28;1260;-59
2021/04/20 14:20:00;;;;;;;;;;;;;;;;;;5023502;28;897;-58
2021/04/20 14:22:26;;;;;;;;;;;;;;;;;;5023063;28;1898;-60
2021/04/20 14:24:59;;;;;;;;;;;;;;;;;;5024190;28;1002;-58
2021/04/20 14:27:26;;;;;;;;;;;;;;;;;;5023302;28;861;-60
2021/04/20 14:29:51;;;;;;;;;;;;;;;;;;5024130;28;798;-59
2021/04/20 14:32:17;;;;;;;;;;;;;;;;;;5022995;28;881;-59
2021/04/20 14:34:48;;;;;;;;;;;;;;;;;;5023256;28;894;-59
2021/04/20 14:37:17;;;;;;;;;;;;;;;;;;5022798;28;905;-58
2021/04/20 14:39:43;;;;;;;;;;;;;;;;;;5022902;28;846;-60
2021/04/20 14:42:10;;;;;;;;;;;;;;;;;;4992988;28;1987;-61
2021/04/20 14:44:38;;;;;;;;;;;;;;;;;;5002504;28;885;-59
2021/04/20 14:47:05;;;;;;;;;;;;;;;;;;5002667;28;1540;-59
2021/04/20 14:49:31;;;;;;;;;;;;;;;;;;5001886;28;1061;-60
2021/04/20 14:52:02;;;;;;;;;;;;;;;;;;4999623;28;1292;-59
2021/04/20 14:54:29;;;;;;;;;;;;;;;;;;5002545;28;1125;-59
2021/04/20 14:56:55;;;;;;;;;;;;;;;;;;5000531;28;1256;-62
2021/04/20 14:59:22;;;;;;;;;;;;;;;;;;4999920;28;1256;-63
2021/04/20 15:01:57;;;;;;;;;;;;;;;;;;5004705;28;1886;-59
2021/04/20 15:04:24;;;;;;;;;;;;;;;;;;5010816;28;1299;-60
2021/04/20 15:07:05;;;;;;;;;;;;;;;;;;5005316;28;1252;-61
2021/04/20 15:09:42;;;;;;;;;;;;;;;;;;5004269;28;1204;-61
2021/04/20 15:12:13;;;;;;;;;;;;;;;;;;5004138;28;1215;-59
2021/04/20 15:14:42;;;;;;;;;;;;;;;;;;5004200;28;1248;-68
2021/04/20 15:17:12;;;;;;;;;;;;;;;;;;5004728;28;1151;-59
2021/04/20 15:19:40;;;;;;;;;;;;;;;;;;5005272;28;1319;-59
2021/04/20 15:22:12;;;;;;;;;;;;;;;;;;5003511;28;1898;-59
2021/04/20 15:24:58;;;;;;;;;;;;;;;;;;5002954;28;1558;-62
2021/04/20 15:27:31;;;;;;;;;;;;;;;;;;5005747;28;1235;-61
2021/04/20 15:30:07;;;;;;;;;;;;;;;;;;5003954;28;1209;-63
2021/04/20 15:32:46;;;;;;;;;;;;;;;;;;5002988;28;1197;-60
2021/04/20 15:35:13;;;;;;;;;;;;;;;;;;5005460;28;1236;-59
2021/04/20 15:37:41;;;;;;;;;;;;;;;;;;5002913;28;1461;-59
2021/04/20 15:40:08;;;;;;;;;;;;;;;;;;5001967;28;1160;-59
2021/04/20 15:42:34;;;;;;;;;;;;;;;;;;5005162;28;1926;-59
2021/04/20 15:45:01;;;;;;;;;;;;;;;;;;5005474;28;1291;-59
2021/04/20 15:47:28;;;;;;;;;;;;;;;;;;5003248;28;1199;-59
2021/04/20 15:50:00;;;;;;;;;;;;;;;;;;5004235;28;1295;-61
2021/04/20 15:52:29;;;;;;;;;;;;;;;;;;5003050;28;1542;-61
2021/04/20 15:54:58;;;;;;;;;;;;;;;;;;5003971;28;1329;-59
2021/04/20 15:57:25;;;;;;;;;;;;;;;;;;5004428;28;1152;-63
2021/04/20 15:59:51;;;;;;;;;;;;;;;;;;5003868;28;1518;-59
2021/04/20 16:02:23;;;;;;;;;;;;;;;;;;5002214;28;1893;-59
2021/04/20 16:04:50;;;;;;;;;;;;;;;;;;5000262;28;1584;-59
2021/04/20 16:07:23;;;;;;;;;;;;;;;;;;5005516;28;1357;-59
2021/04/20 16:09:50;;;;;;;;;;;;;;;;;;4995707;28;2375;-59
2021/04/20 16:12:16;;;;;;;;;;;;;;;;;;4998046;28;1526;-59
2021/04/20 16:14:44;;;;;;;;;;;;;;;;;;5001156;28;1518;-59
2021/04/20 16:17:11;;;;;;;;;;;;;;;;;;5002908;28;1212;-61
2021/04/20 16:19:42;;;;;;;;;;;;;;;;;;5002662;28;1225;-59
2021/04/20 16:22:09;;;;;;;;;;;;;;;;;;5002883;28;1897;-59
2021/04/20 16:24:36;;;;;;;;;;;;;;;;;;5004386;28;1215;-60
2021/04/20 16:27:03;;;;;;;;;;;;;;;;;;5004646;28;1233;-59
2021/04/20 16:29:29;;;;;;;;;;;;;;;;;;4999410;28;1645;-60
2021/04/20 16:31:58;;;;;;;;;;;;;;;;;;5003771;28;1464;-59
2021/04/20 16:34:24;;;;;;;;;;;;;;;;;;5007072;28;1539;-60
2021/04/20 16:37:00;;;;;;;;;;;;;;;;;;5003495;28;1515;-60
2021/04/20 16:39:32;;;;;;;;;;;;;;;;;;5004350;28;1214;-59
2021/04/20 16:42:16;;;;;;;;;;;;;;;;;;5004909;28;1967;-59
2021/04/20 16:44:53;;;;;;;;;;;;;;;;;;5004634;28;1203;-59
2021/04/20 16:47:19;;;;;;;;;;;;;;;;;;5006679;28;1687;-59
2021/04/20 16:49:50;;;;;;;;;;;;;;;;;;4999645;28;1498;-59
2021/04/20 16:52:26;;;;;;;;;;;;;;;;;;5002993;28;1102;-59
2021/04/20 16:54:59;;;;;;;;;;;;;;;;;;5003601;28;1033;-61
2021/04/20 16:57:24;;;;;;;;;;;;;;;;;;5004594;28;1194;-62
2021/04/20 16:59:57;;;;;;;;;;;;;;;;;;5005068;28;823;-59
2021/04/20 17:02:36;;;;;;;;;;;;;;;;;;5004191;28;1953;-61
2021/04/20 17:05:08;;;;;;;;;;;;;;;;;;4999946;28;894;-60
2021/04/20 17:07:49;;;;;;;;;;;;;;;;;;5004230;28;1183;-59
2021/04/20 17:10:28;;;;;;;;;;;;;;;;;;5003184;28;2246;-59
2021/04/20 17:13:02;;;;;;;;;;;;;;;;;;5005202;28;1135;-61
2021/04/20 17:15:36;;;;;;;;;;;;;;;;;;5002781;28;793;-59
2021/04/20 17:18:13;;;;;;;;;;;;;;;;;;5003235;28;886;-59